Middleway, West Virginia
Current Conditions -  °F | °C
As of 9:53 PM on Wednesday 22 Oct 2014 (Local Time) from KMRB Reporting Station
Broken Clouds Broken Clouds  
Wind Chill: 52°   Ceiling: 3200
Heat Index: 52°   Visibility: 10mi
Dew Point: 40°   Wind: 16mph
Humidity: 63%   Direction: 320°NW
Pressure: 30.03"   Gusts: 24mph
Location:  39.3256°N, 77.947°W
Report Text: KMRB 230153Z 32014G21KT 10SM BKN032 11/04 A3003 RMK AO2 SLP171 T01110044
Loading
Personal Weather Stations






























Interactive Weather Map
Tropical Storm Tracking
New forecast layout! Learn more

10-Day Weather Forecast

Advertisements
Track Severe Weather on mobile